IRA104 OIII-OIAA
Flight info
| Callsign | IRA104 |
|---|---|
| Flight time | 1h 14m |
| Altitude | 30000 |
| Route | EGVEL B417 MAH W31 BOPIS |
| Aircraft | MD83/M-SDFGIRWY/S |
Departure
| Time | 2026-05-08 17:52 |
|---|---|
| Airport | Mehrabad International Airport (OIII) |
Arrival
| Time | 2026-05-08 19:07 |
|---|---|
| Airport | Abadan Ayatollah Jami International Airport (OIAA) |
| Time | Latitude | Longitude | Altitude | Speed | Heading |
|---|---|---|---|---|---|
| 2026-05-08 17:08 | 35.68762 | 51.32886 | 3847 ft | 0 kts | 199° |
| 2026-05-08 17:11 | 35.68763 | 51.32886 | 3847 ft | 0 kts | 199° |
| 2026-05-08 17:22 | 35.68763 | 51.32887 | 3847 ft | 0 kts | 199° |
| 2026-05-08 17:26 | 35.68764 | 51.32887 | 3847 ft | 0 kts | 199° |
| 2026-05-08 17:31 | 35.68767 | 51.32888 | 3847 ft | 3 kts | 199° |
| 2026-05-08 17:31 | 35.68792 | 51.32899 | 3846 ft | 3 kts | 199° |
| 2026-05-08 17:31 | 35.68813 | 51.32905 | 3840 ft | 4 kts | 165° |
| 2026-05-08 17:32 | 35.68821 | 51.32897 | 3841 ft | 4 kts | 96° |
| 2026-05-08 17:32 | 35.68822 | 51.32875 | 3842 ft | 4 kts | 96° |
| 2026-05-08 17:32 | 35.68827 | 51.32852 | 3845 ft | 1 kts | 110° |
| 2026-05-08 17:32 | 35.68827 | 51.32851 | 3845 ft | 0 kts | 110° |
| 2026-05-08 17:37 | 35.68824 | 51.32860 | 3844 ft | 4 kts | 110° |
| 2026-05-08 17:37 | 35.68807 | 51.32917 | 3846 ft | 9 kts | 113° |
| 2026-05-08 17:38 | 35.68799 | 51.32936 | 3842 ft | 0 kts | 118° |
| 2026-05-08 17:42 | 35.68799 | 51.32935 | 3848 ft | 0 kts | 124° |
| 2026-05-08 17:44 | 35.68791 | 51.32946 | 3840 ft | 0 kts | 131° |
| 2026-05-08 17:45 | 35.68785 | 51.32955 | 3840 ft | 3 kts | 131° |
| 2026-05-08 17:45 | 35.68786 | 51.32954 | 3840 ft | 4 kts | 131° |
| 2026-05-08 17:45 | 35.68782 | 51.32960 | 3847 ft | 0 kts | 131° |
| 2026-05-08 17:47 | 35.68769 | 51.32975 | 3841 ft | 4 kts | 140° |
| 2026-05-08 17:47 | 35.68729 | 51.33008 | 3839 ft | 9 kts | 150° |
| 2026-05-08 17:47 | 35.68663 | 51.33074 | 3832 ft | 15 kts | 132° |
| 2026-05-08 17:47 | 35.68622 | 51.33156 | 3828 ft | 19 kts | 114° |
| 2026-05-08 17:48 | 35.68547 | 51.33390 | 3819 ft | 24 kts | 115° |
| 2026-05-08 17:48 | 35.68447 | 51.33478 | 3813 ft | 14 kts | 178° |
| 2026-05-08 17:48 | 35.68358 | 51.33456 | 3812 ft | 14 kts | 199° |
| 2026-05-08 17:48 | 35.68256 | 51.33411 | 3807 ft | 11 kts | 211° |
| 2026-05-08 17:49 | 35.68240 | 51.33386 | 3807 ft | 1 kts | 252° |
| 2026-05-08 17:49 | 35.68240 | 51.33384 | 3807 ft | 1 kts | 262° |
| 2026-05-08 17:49 | 35.68241 | 51.33366 | 3807 ft | 6 kts | 274° |
| 2026-05-08 17:49 | 35.68245 | 51.33335 | 3808 ft | 0 kts | 289° |
| 2026-05-08 17:51 | 35.68247 | 51.33330 | 3808 ft | 4 kts | 289° |
| 2026-05-08 17:51 | 35.68268 | 51.33255 | 3812 ft | 15 kts | 289° |
| 2026-05-08 17:51 | 35.68362 | 51.32933 | 3822 ft | 78 kts | 290° |
| 2026-05-08 17:51 | 35.68656 | 51.31968 | 3845 ft | 159 kts | 290° |
| 2026-05-08 17:52 | 35.69082 | 51.30538 | 4444 ft | 178 kts | 293° |
| 2026-05-08 17:52 | 35.69487 | 51.29198 | 5681 ft | 175 kts | 290° |
| 2026-05-08 17:52 | 35.70104 | 51.26196 | 7657 ft | 168 kts | 273° |
| 2026-05-08 17:53 | 35.70201 | 51.24824 | 8669 ft | 162 kts | 273° |
| 2026-05-08 17:53 | 35.70326 | 51.23362 | 9242 ft | 187 kts | 274° |
| 2026-05-08 17:53 | 35.70478 | 51.21654 | 9563 ft | 214 kts | 274° |
| 2026-05-08 17:53 | 35.70645 | 51.19731 | 9865 ft | 238 kts | 274° |
| 2026-05-08 17:54 | 35.70817 | 51.17625 | 10127 ft | 256 kts | 274° |
| 2026-05-08 17:54 | 35.70996 | 51.15402 | 10464 ft | 267 kts | 274° |
| 2026-05-08 17:54 | 35.71180 | 51.13084 | 10794 ft | 277 kts | 273° |
| 2026-05-08 17:54 | 35.71368 | 51.10697 | 11118 ft | 284 kts | 273° |
| 2026-05-08 17:55 | 35.71559 | 51.08251 | 11451 ft | 290 kts | 273° |
| 2026-05-08 17:55 | 35.71750 | 51.05767 | 11799 ft | 294 kts | 273° |
| 2026-05-08 17:55 | 35.71944 | 51.03242 | 12142 ft | 298 kts | 273° |
| 2026-05-08 17:55 | 35.72139 | 51.00697 | 12487 ft | 299 kts | 273° |
| 2026-05-08 17:56 | 35.72334 | 50.98139 | 12853 ft | 301 kts | 272° |
| 2026-05-08 17:56 | 35.72528 | 50.95565 | 13181 ft | 303 kts | 272° |
| 2026-05-08 17:56 | 35.72724 | 50.92985 | 13527 ft | 303 kts | 272° |
| 2026-05-08 17:56 | 35.72719 | 50.90412 | 13849 ft | 300 kts | 254° |
| 2026-05-08 17:57 | 35.71793 | 50.88159 | 14153 ft | 295 kts | 234° |
| 2026-05-08 17:57 | 35.70574 | 50.86131 | 14446 ft | 295 kts | 232° |
| 2026-05-08 17:57 | 35.69326 | 50.84134 | 14750 ft | 294 kts | 231° |
| 2026-05-08 17:57 | 35.68059 | 50.82159 | 15053 ft | 294 kts | 230° |
| 2026-05-08 17:58 | 35.66776 | 50.80205 | 15355 ft | 293 kts | 230° |
| 2026-05-08 17:58 | 35.65486 | 50.78269 | 15650 ft | 292 kts | 230° |
| 2026-05-08 17:58 | 35.64198 | 50.76346 | 15939 ft | 291 kts | 230° |
| 2026-05-08 17:58 | 35.62909 | 50.74431 | 16233 ft | 290 kts | 230° |
| 2026-05-08 17:59 | 35.61623 | 50.72526 | 16530 ft | 289 kts | 230° |
| 2026-05-08 17:59 | 35.60116 | 50.70933 | 16784 ft | 290 kts | 206° |
| 2026-05-08 17:59 | 35.58195 | 50.70187 | 17107 ft | 289 kts | 197° |
| 2026-05-08 17:59 | 35.56244 | 50.69609 | 17428 ft | 287 kts | 196° |
| 2026-05-08 18:00 | 35.54299 | 50.69070 | 17746 ft | 286 kts | 195° |
| 2026-05-08 18:00 | 35.50419 | 50.68090 | 18331 ft | 284 kts | 194° |
| 2026-05-08 18:00 | 35.48488 | 50.67632 | 18591 ft | 282 kts | 194° |
| 2026-05-08 18:01 | 35.46558 | 50.67180 | 18841 ft | 281 kts | 194° |
| 2026-05-08 18:01 | 35.44639 | 50.66737 | 19088 ft | 280 kts | 194° |
| 2026-05-08 18:01 | 35.42722 | 50.66299 | 19324 ft | 279 kts | 194° |
| 2026-05-08 18:01 | 35.40813 | 50.65865 | 19567 ft | 279 kts | 194° |
| 2026-05-08 18:02 | 35.38909 | 50.65438 | 19813 ft | 278 kts | 194° |
| 2026-05-08 18:02 | 35.37651 | 50.65156 | 19973 ft | 277 kts | 194° |
| 2026-05-08 18:02 | 35.35025 | 50.64560 | 20084 ft | 301 kts | 194° |
| 2026-05-08 18:02 | 35.32925 | 50.64062 | 20187 ft | 322 kts | 194° |
| 2026-05-08 18:03 | 35.30663 | 50.63514 | 20330 ft | 341 kts | 194° |
| 2026-05-08 18:03 | 35.28270 | 50.62924 | 20479 ft | 360 kts | 194° |
| 2026-05-08 18:03 | 35.25746 | 50.62294 | 20609 ft | 381 kts | 194° |
| 2026-05-08 18:03 | 35.23102 | 50.61628 | 20997 ft | 392 kts | 194° |
| 2026-05-08 18:04 | 35.20426 | 50.60952 | 21804 ft | 393 kts | 194° |
| 2026-05-08 18:04 | 35.17748 | 50.60282 | 22635 ft | 394 kts | 194° |
| 2026-05-08 18:04 | 35.15052 | 50.59613 | 23357 ft | 397 kts | 195° |
| 2026-05-08 18:04 | 35.12338 | 50.58947 | 23968 ft | 399 kts | 195° |
| 2026-05-08 18:05 | 35.09650 | 50.58298 | 24612 ft | 400 kts | 195° |
| 2026-05-08 18:05 | 35.06937 | 50.57661 | 25277 ft | 399 kts | 194° |
| 2026-05-08 18:05 | 35.04214 | 50.57038 | 25931 ft | 399 kts | 194° |
| 2026-05-08 18:05 | 35.01477 | 50.56427 | 26521 ft | 400 kts | 194° |
| 2026-05-08 18:06 | 34.98736 | 50.55831 | 27139 ft | 399 kts | 195° |
| 2026-05-08 18:06 | 34.96030 | 50.55274 | 28093 ft | 390 kts | 195° |
| 2026-05-08 18:06 | 34.93384 | 50.54759 | 29084 ft | 381 kts | 195° |
| 2026-05-08 18:06 | 34.90764 | 50.54276 | 29625 ft | 380 kts | 195° |
| 2026-05-08 18:07 | 34.88151 | 50.53812 | 29843 ft | 379 kts | 194° |
| 2026-05-08 18:07 | 34.85549 | 50.53361 | 29944 ft | 377 kts | 194° |
| 2026-05-08 18:07 | 34.80340 | 50.52466 | 30009 ft | 379 kts | 194° |
| 2026-05-08 18:08 | 34.75156 | 50.51431 | 30017 ft | 373 kts | 201° |
| 2026-05-08 18:08 | 34.70293 | 50.49370 | 30047 ft | 372 kts | 200° |
| 2026-05-08 18:09 | 34.65213 | 50.48007 | 30047 ft | 374 kts | 198° |
| 2026-05-08 18:09 | 34.60128 | 50.46609 | 30069 ft | 375 kts | 199° |
| 2026-05-08 18:10 | 34.55063 | 50.45083 | 30045 ft | 374 kts | 200° |
| 2026-05-08 18:10 | 34.50035 | 50.43501 | 30071 ft | 374 kts | 200° |
| 2026-05-08 18:11 | 34.44996 | 50.41908 | 30092 ft | 375 kts | 200° |
| 2026-05-08 18:11 | 34.39940 | 50.40311 | 30104 ft | 376 kts | 199° |
| 2026-05-08 18:12 | 34.34870 | 50.38733 | 30116 ft | 376 kts | 199° |
| 2026-05-08 18:12 | 34.29792 | 50.37177 | 30110 ft | 375 kts | 198° |
| 2026-05-08 18:13 | 34.24760 | 50.35610 | 30118 ft | 372 kts | 199° |
| 2026-05-08 18:13 | 34.19740 | 50.34048 | 30117 ft | 374 kts | 199° |
| 2026-05-08 18:14 | 34.14694 | 50.32498 | 30144 ft | 374 kts | 199° |
| 2026-05-08 18:14 | 34.09654 | 50.30953 | 30115 ft | 372 kts | 199° |
| 2026-05-08 18:15 | 34.04612 | 50.29396 | 30147 ft | 376 kts | 199° |
| 2026-05-08 18:15 | 33.99536 | 50.27818 | 30171 ft | 376 kts | 199° |
| 2026-05-08 18:16 | 33.94451 | 50.26295 | 30178 ft | 376 kts | 199° |
| 2026-05-08 18:16 | 33.89418 | 50.24702 | 30160 ft | 373 kts | 199° |
| 2026-05-08 18:17 | 33.85232 | 50.23428 | 30167 ft | 374 kts | 199° |
| 2026-05-08 18:17 | 33.80170 | 50.21902 | 30167 ft | 376 kts | 199° |
| 2026-05-08 18:18 | 33.75091 | 50.20359 | 30168 ft | 377 kts | 199° |
| 2026-05-08 18:18 | 33.70021 | 50.18809 | 30154 ft | 374 kts | 199° |
| 2026-05-08 18:19 | 33.64991 | 50.17276 | 30141 ft | 373 kts | 198° |
| 2026-05-08 18:19 | 33.59950 | 50.15737 | 30168 ft | 375 kts | 198° |
| 2026-05-08 18:20 | 33.54877 | 50.14199 | 30189 ft | 377 kts | 198° |
| 2026-05-08 18:20 | 33.49791 | 50.12657 | 30184 ft | 376 kts | 198° |
| 2026-05-08 18:21 | 33.44735 | 50.11129 | 30194 ft | 375 kts | 198° |
| 2026-05-08 18:21 | 33.39687 | 50.09586 | 30175 ft | 374 kts | 198° |
| 2026-05-08 18:22 | 33.34629 | 50.08045 | 30195 ft | 376 kts | 198° |
| 2026-05-08 18:22 | 33.29547 | 50.06550 | 30184 ft | 376 kts | 198° |
| 2026-05-08 18:23 | 33.24463 | 50.05012 | 30214 ft | 377 kts | 198° |
| 2026-05-08 18:23 | 33.19425 | 50.03489 | 30219 ft | 376 kts | 198° |
| 2026-05-08 18:24 | 33.14329 | 50.01943 | 30217 ft | 381 kts | 198° |
| 2026-05-08 18:24 | 33.09216 | 50.00407 | 30213 ft | 381 kts | 197° |
| 2026-05-08 18:25 | 33.04072 | 49.98915 | 30213 ft | 380 kts | 198° |
| 2026-05-08 18:25 | 32.98960 | 49.97345 | 30220 ft | 380 kts | 197° |
| 2026-05-08 18:26 | 32.94471 | 49.96029 | 30239 ft | 379 kts | 198° |
| 2026-05-08 18:26 | 32.89354 | 49.94467 | 30238 ft | 380 kts | 198° |
| 2026-05-08 18:27 | 32.85067 | 49.93177 | 30219 ft | 379 kts | 198° |
| 2026-05-08 18:27 | 32.79115 | 49.91405 | 30235 ft | 379 kts | 198° |
| 2026-05-08 18:28 | 32.74006 | 49.89889 | 30252 ft | 378 kts | 197° |
| 2026-05-08 18:28 | 32.68906 | 49.88373 | 30228 ft | 379 kts | 197° |
| 2026-05-08 18:29 | 32.63796 | 49.86818 | 30202 ft | 381 kts | 197° |
| 2026-05-08 18:29 | 32.58624 | 49.85327 | 30208 ft | 384 kts | 197° |
| 2026-05-08 18:30 | 32.53441 | 49.83808 | 30219 ft | 382 kts | 198° |
| 2026-05-08 18:30 | 32.48315 | 49.82254 | 30189 ft | 379 kts | 198° |
| 2026-05-08 18:31 | 32.43158 | 49.80707 | 30182 ft | 386 kts | 197° |
| 2026-05-08 18:31 | 32.37926 | 49.79184 | 30205 ft | 387 kts | 197° |
| 2026-05-08 18:32 | 32.32704 | 49.77653 | 30136 ft | 385 kts | 197° |
| 2026-05-08 18:32 | 32.27562 | 49.76132 | 30136 ft | 383 kts | 197° |
| 2026-05-08 18:33 | 32.22380 | 49.74618 | 30109 ft | 385 kts | 197° |
| 2026-05-08 18:33 | 32.17183 | 49.73071 | 30101 ft | 386 kts | 197° |
| 2026-05-08 18:34 | 32.11950 | 49.71552 | 30090 ft | 387 kts | 197° |
| 2026-05-08 18:34 | 32.06745 | 49.70007 | 30060 ft | 385 kts | 197° |
| 2026-05-08 18:35 | 32.01558 | 49.68486 | 30040 ft | 383 kts | 197° |
| 2026-05-08 18:35 | 31.96357 | 49.66966 | 30034 ft | 388 kts | 196° |
| 2026-05-08 18:36 | 31.91108 | 49.65424 | 30034 ft | 389 kts | 197° |
| 2026-05-08 18:36 | 31.85840 | 49.63882 | 30027 ft | 391 kts | 196° |
| 2026-05-08 18:37 | 31.80577 | 49.62348 | 30016 ft | 388 kts | 196° |
| 2026-05-08 18:37 | 31.75341 | 49.60812 | 29977 ft | 388 kts | 196° |
| 2026-05-08 18:38 | 31.70138 | 49.59088 | 29988 ft | 389 kts | 200° |
| 2026-05-08 18:38 | 31.65012 | 49.57050 | 29972 ft | 389 kts | 201° |
| 2026-05-08 18:39 | 31.59876 | 49.54992 | 29976 ft | 391 kts | 200° |
| 2026-05-08 18:39 | 31.54732 | 49.52968 | 29962 ft | 389 kts | 200° |
| 2026-05-08 18:40 | 31.49604 | 49.50979 | 29955 ft | 388 kts | 200° |
| 2026-05-08 18:40 | 31.44458 | 49.48996 | 29517 ft | 395 kts | 200° |
| 2026-05-08 18:41 | 31.41894 | 49.48002 | 28992 ft | 391 kts | 200° |
| 2026-05-08 18:41 | 31.39326 | 49.47012 | 28469 ft | 387 kts | 200° |
| 2026-05-08 18:41 | 31.36747 | 49.46019 | 27931 ft | 384 kts | 200° |
| 2026-05-08 18:41 | 31.34216 | 49.45043 | 27420 ft | 382 kts | 201° |
| 2026-05-08 18:42 | 31.31693 | 49.44071 | 26920 ft | 381 kts | 201° |
| 2026-05-08 18:42 | 31.29206 | 49.43114 | 26420 ft | 381 kts | 201° |
| 2026-05-08 18:42 | 31.26699 | 49.42151 | 25925 ft | 379 kts | 201° |
| 2026-05-08 18:42 | 31.24194 | 49.41189 | 25447 ft | 378 kts | 202° |
| 2026-05-08 18:43 | 31.21697 | 49.40227 | 24979 ft | 377 kts | 202° |
| 2026-05-08 18:43 | 31.19205 | 49.39267 | 24517 ft | 377 kts | 202° |
| 2026-05-08 18:43 | 31.16715 | 49.38307 | 24074 ft | 377 kts | 202° |
| 2026-05-08 18:43 | 31.14229 | 49.37349 | 23617 ft | 376 kts | 203° |
| 2026-05-08 18:44 | 31.11745 | 49.36391 | 23104 ft | 376 kts | 203° |
| 2026-05-08 18:44 | 31.09269 | 49.35431 | 22570 ft | 374 kts | 202° |
| 2026-05-08 18:44 | 31.06808 | 49.34478 | 22046 ft | 372 kts | 202° |
| 2026-05-08 18:44 | 31.04353 | 49.33530 | 21541 ft | 371 kts | 202° |
| 2026-05-08 18:45 | 31.01904 | 49.32586 | 21029 ft | 370 kts | 202° |
| 2026-05-08 18:45 | 30.99463 | 49.31648 | 20535 ft | 369 kts | 201° |
| 2026-05-08 18:45 | 30.97029 | 49.30714 | 20050 ft | 368 kts | 201° |
| 2026-05-08 18:45 | 30.94602 | 49.29784 | 19584 ft | 367 kts | 201° |
| 2026-05-08 18:46 | 30.92181 | 49.28857 | 19108 ft | 366 kts | 201° |
| 2026-05-08 18:46 | 30.89766 | 49.27933 | 18660 ft | 365 kts | 200° |
| 2026-05-08 18:46 | 30.87360 | 49.27014 | 18181 ft | 364 kts | 200° |
| 2026-05-08 18:46 | 30.84959 | 49.26098 | 17656 ft | 362 kts | 200° |
| 2026-05-08 18:47 | 30.82576 | 49.25192 | 17142 ft | 360 kts | 200° |
| 2026-05-08 18:47 | 30.80204 | 49.24291 | 16625 ft | 357 kts | 200° |
| 2026-05-08 18:47 | 30.77847 | 49.23395 | 16122 ft | 356 kts | 200° |
| 2026-05-08 18:47 | 30.75501 | 49.22503 | 15653 ft | 353 kts | 200° |
| 2026-05-08 18:48 | 30.73177 | 49.21619 | 15210 ft | 348 kts | 200° |
| 2026-05-08 18:48 | 30.70916 | 49.20760 | 14782 ft | 335 kts | 200° |
| 2026-05-08 18:48 | 30.68738 | 49.19934 | 14355 ft | 324 kts | 201° |
| 2026-05-08 18:48 | 30.66633 | 49.19134 | 13936 ft | 314 kts | 201° |
| 2026-05-08 18:49 | 30.64585 | 49.18354 | 13497 ft | 305 kts | 201° |
| 2026-05-08 18:49 | 30.62589 | 49.17593 | 13036 ft | 299 kts | 201° |
| 2026-05-08 18:49 | 30.60622 | 49.16841 | 12582 ft | 296 kts | 201° |
| 2026-05-08 18:49 | 30.58676 | 49.16096 | 12133 ft | 294 kts | 201° |
| 2026-05-08 18:50 | 30.56807 | 49.15189 | 11698 ft | 290 kts | 216° |
| 2026-05-08 18:50 | 30.55472 | 49.13500 | 11272 ft | 285 kts | 244° |
| 2026-05-08 18:50 | 30.54833 | 49.11334 | 10844 ft | 284 kts | 256° |
| 2026-05-08 18:50 | 30.54378 | 49.09115 | 10508 ft | 282 kts | 257° |
| 2026-05-08 18:51 | 30.53957 | 49.06894 | 10183 ft | 280 kts | 258° |
| 2026-05-08 18:51 | 30.53567 | 49.04692 | 9860 ft | 278 kts | 259° |
| 2026-05-08 18:51 | 30.53197 | 49.02523 | 9575 ft | 277 kts | 259° |
| 2026-05-08 18:51 | 30.52818 | 49.00336 | 9322 ft | 277 kts | 259° |
| 2026-05-08 18:52 | 30.52431 | 48.98148 | 9073 ft | 277 kts | 258° |
| 2026-05-08 18:52 | 30.52031 | 48.95957 | 8825 ft | 278 kts | 258° |
| 2026-05-08 18:52 | 30.51620 | 48.93765 | 8579 ft | 278 kts | 258° |
| 2026-05-08 18:52 | 30.51204 | 48.91582 | 8332 ft | 277 kts | 258° |
| 2026-05-08 18:53 | 30.50781 | 48.89405 | 8085 ft | 276 kts | 258° |
| 2026-05-08 18:53 | 30.50358 | 48.87238 | 7852 ft | 274 kts | 258° |
| 2026-05-08 18:53 | 30.49937 | 48.85091 | 7732 ft | 274 kts | 258° |
| 2026-05-08 18:53 | 30.49516 | 48.82938 | 7622 ft | 273 kts | 258° |
| 2026-05-08 18:54 | 30.49095 | 48.80781 | 7483 ft | 277 kts | 258° |
| 2026-05-08 18:54 | 30.48666 | 48.78584 | 7083 ft | 277 kts | 258° |
| 2026-05-08 18:54 | 30.48246 | 48.76432 | 6875 ft | 273 kts | 258° |
| 2026-05-08 18:54 | 30.47830 | 48.74298 | 6666 ft | 272 kts | 258° |
| 2026-05-08 18:55 | 30.47003 | 48.70055 | 6245 ft | 270 kts | 258° |
| 2026-05-08 18:55 | 30.46586 | 48.67932 | 6021 ft | 271 kts | 258° |
| 2026-05-08 18:55 | 30.46166 | 48.65799 | 5805 ft | 270 kts | 258° |
| 2026-05-08 18:56 | 30.45748 | 48.63680 | 5587 ft | 270 kts | 257° |
| 2026-05-08 18:56 | 30.45332 | 48.61560 | 5372 ft | 269 kts | 258° |
| 2026-05-08 18:56 | 30.44915 | 48.59455 | 5144 ft | 265 kts | 258° |
| 2026-05-08 18:56 | 30.44503 | 48.57377 | 4927 ft | 266 kts | 258° |
| 2026-05-08 18:57 | 30.44096 | 48.55323 | 4712 ft | 256 kts | 258° |
| 2026-05-08 18:57 | 30.43834 | 48.54010 | 4570 ft | 250 kts | 258° |
| 2026-05-08 18:57 | 30.43321 | 48.51445 | 4259 ft | 239 kts | 258° |
| 2026-05-08 18:57 | 30.42599 | 48.49751 | 4061 ft | 236 kts | 230° |
| 2026-05-08 18:58 | 30.41355 | 48.48528 | 3874 ft | 233 kts | 219° |
| 2026-05-08 18:58 | 30.40073 | 48.47428 | 3695 ft | 222 kts | 219° |
| 2026-05-08 18:58 | 30.38864 | 48.46399 | 3492 ft | 210 kts | 219° |
| 2026-05-08 18:58 | 30.37705 | 48.45428 | 3282 ft | 202 kts | 219° |
| 2026-05-08 18:59 | 30.36584 | 48.44490 | 3110 ft | 196 kts | 220° |
| 2026-05-08 18:59 | 30.35524 | 48.43592 | 2998 ft | 180 kts | 220° |
| 2026-05-08 18:59 | 30.34551 | 48.42763 | 2840 ft | 169 kts | 220° |
| 2026-05-08 18:59 | 30.33620 | 48.41957 | 2684 ft | 166 kts | 222° |
| 2026-05-08 19:00 | 30.33011 | 48.41434 | 2591 ft | 164 kts | 222° |
| 2026-05-08 19:00 | 30.31796 | 48.40361 | 2395 ft | 163 kts | 223° |
| 2026-05-08 19:00 | 30.30908 | 48.39577 | 2261 ft | 164 kts | 223° |
| 2026-05-08 19:00 | 30.30002 | 48.38758 | 2128 ft | 166 kts | 223° |
| 2026-05-08 19:01 | 30.29095 | 48.37945 | 1981 ft | 164 kts | 224° |
| 2026-05-08 19:01 | 30.28190 | 48.37155 | 1823 ft | 163 kts | 225° |
| 2026-05-08 19:01 | 30.27301 | 48.36369 | 1691 ft | 159 kts | 225° |
| 2026-05-08 19:01 | 30.26427 | 48.35596 | 1544 ft | 158 kts | 225° |
| 2026-05-08 19:02 | 30.25553 | 48.34798 | 1402 ft | 161 kts | 225° |
| 2026-05-08 19:02 | 30.24756 | 48.33934 | 1256 ft | 151 kts | 247° |
| 2026-05-08 19:02 | 30.24612 | 48.32846 | 1115 ft | 136 kts | 294° |
| 2026-05-08 19:02 | 30.25193 | 48.32057 | 989 ft | 130 kts | 328° |
| 2026-05-08 19:03 | 30.25965 | 48.31488 | 854 ft | 133 kts | 330° |
| 2026-05-08 19:03 | 30.26735 | 48.30928 | 709 ft | 128 kts | 328° |
| 2026-05-08 19:03 | 30.27499 | 48.30410 | 607 ft | 123 kts | 328° |
| 2026-05-08 19:03 | 30.28226 | 48.29905 | 597 ft | 121 kts | 325° |
| 2026-05-08 19:04 | 30.28939 | 48.29339 | 552 ft | 125 kts | 321° |
| 2026-05-08 19:04 | 30.29610 | 48.28738 | 538 ft | 120 kts | 320° |
| 2026-05-08 19:04 | 30.30294 | 48.28165 | 527 ft | 125 kts | 324° |
| 2026-05-08 19:04 | 30.31086 | 48.27667 | 447 ft | 128 kts | 330° |
| 2026-05-08 19:05 | 30.31859 | 48.27097 | 348 ft | 140 kts | 325° |
| 2026-05-08 19:05 | 30.32600 | 48.26449 | 406 ft | 136 kts | 322° |
| 2026-05-08 19:05 | 30.33087 | 48.26001 | 406 ft | 133 kts | 322° |
| 2026-05-08 19:05 | 30.33831 | 48.25375 | 388 ft | 135 kts | 324° |
| 2026-05-08 19:06 | 30.34615 | 48.24754 | 249 ft | 136 kts | 325° |
| 2026-05-08 19:06 | 30.35402 | 48.24139 | 136 ft | 135 kts | 324° |
| 2026-05-08 19:06 | 30.36168 | 48.23521 | 44 ft | 129 kts | 324° |
| 2026-05-08 19:06 | 30.36845 | 48.22972 | 25 ft | 108 kts | 323° |
| 2026-05-08 19:07 | 30.37265 | 48.22628 | 24 ft | 28 kts | 324° |
| 2026-05-08 19:07 | 30.37455 | 48.22469 | 23 ft | 35 kts | 324° |
| 2026-05-08 19:07 | 30.37653 | 48.22301 | 24 ft | 36 kts | 323° |
| 2026-05-08 19:07 | 30.37838 | 48.22108 | 27 ft | 36 kts | 293° |
| 2026-05-08 19:08 | 30.37746 | 48.21966 | 23 ft | 18 kts | 162° |
| 2026-05-08 19:08 | 30.37658 | 48.22037 | 22 ft | 14 kts | 145° |
| 2026-05-08 19:08 | 30.37569 | 48.22109 | 22 ft | 17 kts | 145° |
| 2026-05-08 19:08 | 30.37459 | 48.22197 | 22 ft | 21 kts | 145° |
| 2026-05-08 19:09 | 30.37328 | 48.22302 | 24 ft | 25 kts | 145° |
| 2026-05-08 19:09 | 30.37180 | 48.22421 | 22 ft | 27 kts | 145° |
| 2026-05-08 19:09 | 30.37014 | 48.22553 | 22 ft | 30 kts | 146° |
| 2026-05-08 19:09 | 30.36836 | 48.22700 | 22 ft | 33 kts | 143° |
| 2026-05-08 19:10 | 30.36645 | 48.22795 | 24 ft | 23 kts | 173° |
| 2026-05-08 19:10 | 30.36520 | 48.22851 | 22 ft | 19 kts | 142° |
| 2026-05-08 19:10 | 30.36442 | 48.22892 | 22 ft | 5 kts | 206° |
| 2026-05-08 19:10 | 30.36428 | 48.22872 | 22 ft | 1 kts | 239° |
| 2026-05-08 19:11 | 30.36420 | 48.22855 | 6 ft | 0 kts | 248° |
| 2026-05-08 19:11 | 30.36420 | 48.22849 | 3 ft | 0 kts | 262° |